Victor Falcao

Recruteur - Deportes Tolima
20 Févr 2028
Dimanche
Processus

Personnalité

Adaptabilité (16) Ambition (11) Controverse (13) Loyauté (14) Pression (18) Professionnalisme (11) Sportivité (9) Tempérament (13)

Profil

Style d'entraînement Démocratique
Diplôme Continental B
Détermination 9
Gestion des joueurs 4
Motivation 6
Discipline 11
Satisfaction professionnelle
100%
Fatigue
0%
Rôle Recruteur
Salaire 57.8K p/s
Contrat 14.03.2028

Performance

Comportement Bon
Efficacité de l'entraînement
58%
Développement des joueurs
30%
Prévention des blessures
45%
Mise en place tactique
65%

Événements récents

Négociation de contrat entamée maintenant
A participé à une réunion de recrutement maintenant
A participé à une réunion de recrutement maintenant
A participé à une réunion de recrutement maintenant
Négociation de contrat entamée maintenant
Négociation de contrat entamée maintenant
Négociation de contrat entamée maintenant
Négociation de contrat entamée 7j

Suivi en cours

97
Joueur Club Statut Capacité Confiance Observé Dernière observation Dernier vote
Cristian Lora Leones Perdu 92 / 114 79% 1 01.12.2027 -
Joan Cajares Fortaleza CEIF Actif 111 / 114 30% 1 / 1m 21.07.2027 -
Othmane Maamma Watford Actif 118 / 132 40% 2 30.05.2027 -
Nana Nuhu WAFA Actif 83 / 103 40% 1 30.05.2027 -
Jeremías Merlo Gimnasia La Plata Actif 124 / 120 40% 1 30.05.2027 -
Kirill Glebov CSKA Moscow Actif 120 / 122 40% 2 26.05.2027 -
Daniel Awuni Aduana Stars Actif 95 / 115 40% 1 26.05.2027 -
Oscar Schwartau Norwich City Actif 114 / 107 40% 2 25.05.2027 -
Zane Albarus Shrewsbury Town Actif 85 / 92 40% 1 25.05.2027 -
Monty Batlhabane Polokwane City Actif 94 / 108 40% 3 24.05.2027 -
Alex Verón Vélez Actif 107 / 112 40% 1 24.05.2027 -
Teboho Zwane Ajax Cape Town Actif 91 / 88 40% 4 23.05.2027 -
Abubakar Garba Nasarawa United Actif 84 / 78 40% 1 22.05.2027 -
Sindre Walle Egeli Udinese Actif 128 / 121 40% 5 21.05.2027 -
George Brown Sheffield Wednesday Actif 108 / 97 40% 3 21.05.2027 -
Alphadjo Cissé Lecce Actif 131 / 138 40% 1 19.05.2027 -
Marcos Arias Metalurh Zaporizhzhia Actif 95 / 94 40% 1 19.05.2027 -
Naledi Hlongwane Wa All Stars Actif 98 / 92 40% 3 17.05.2027 -
Calum Agius Crewe Alexandra Actif 102 / 80 40% 2 17.05.2027 -
Jesús Rodríguez Como Actif 149 / 149 40% 2 17.05.2027 Plus d'infos
Jeremy van Haalen NEC Actif 85 / 100 40% 1 17.05.2027 -
Lorenzo De Leo Renate Actif 91 / 93 40% 6 14.05.2027 -
Elijas Gunnergård Ortan Ahrobiznes Actif 84 / 99 40% 2 14.05.2027 -
Sidiki Chérif Newcastle United Actif 119 / 137 40% 2 14.05.2027 -
Ben Ahmed Kohili Paradou Actif 98 / 122 40% 4 13.05.2027 -
Mateus Mané Burnley Actif 129 / 141 40% 7 13.05.2027 -
Chari Giwa US Bougouni Actif 83 / 63 40% 3 12.05.2027 -
Víctor Guzmán Sporting CP Actif 101 / 102 40% 2 12.05.2027 -
Salvador Blopá Sporting CP Actif 107 / 136 40% 2 12.05.2027 -
Joel Orlando Almagro Actif 107 / 122 40% 1 11.05.2027 -
Asanele Bonani Chippa United Actif 96 / 83 40% 1 11.05.2027 -
Mohamadou Kanté Crawley Town Actif 118 / 108 40% 2 08.05.2027 -
Darlvin Yeboah Bechem United Actif 78 / 94 40% 3 05.05.2027 -
Andy Batioja Atletico Nacional Actif 115 / 120 42% 1 / 1m 05.05.2027 -
Luka Andrade Montevideo City Torque Actif 103 / 118 40% 1 05.05.2027 -
Joseph George Aigle Royal de Moungo Actif 85 / 79 40% 3 03.05.2027 -
Germán Barbas Burgos Actif 110 / 131 40% 3 30.04.2027 -
Máximo Seggio Crawley Town Actif 92 / 86 40% 2 30.04.2027 -
Chineme Chinonso Ikorodu City Actif 101 / 80 40% 1 30.04.2027 -
Araphat Mohammed Ashanti Gold Actif 97 / 118 40% 1 27.04.2027 -
Jan Bürger Northampton Town Actif 102 / 112 40% 1 26.04.2027 -
Gabriele Bertolini Vicenza Actif 96 / 92 40% 1 26.04.2027 -
Bariş Kalaycı Fatih Karagumruk Actif 95 / 108 40% 1 25.04.2027 -
Matvii Ponomarenko Dynamo Kyiv Actif 117 / 130 40% 3 24.04.2027 -
Leo Castledine Middlesbrough Actif 136 / 129 40% 4 24.04.2027 -
Borna Knezović Casarano Actif 101 / 111 40% 1 23.04.2027 -
Bazoumana Touré Newcastle United Actif 132 / 155 40% 1 23.04.2027 -
Rafael Moreno Atletico Venezuela Actif 101 / 102 40% 3 21.04.2027 -
Luke Baartman Ajax Cape Town Actif 105 / 122 40% 1 18.04.2027 -
Fletcher Holman Swindon Town Actif 85 / 84 40% 3 16.04.2027 -
Dylan Cabral Arsenal Actif 99 / 93 40% 1 16.04.2027 -
David Fernández O'Higgins Actif 110 / 111 40% 1 16.04.2027 -
Alen Vukaj Alcione Milano Actif 95 / 78 40% 1 15.04.2027 -
Miloš Jovičić Zabbar St. Patrick Actif 86 / 81 40% 3 11.04.2027 -
Will Lankshear Middlesbrough Actif 118 / 107 40% 3 11.04.2027 -
Roberto Iliev Slavia Sofia Actif 92 / 86 40% 1 10.04.2027 -
Ryan Oné Sheffield United Actif 110 / 114 40% 1 10.04.2027 -
Tiago Freitas Benfica Actif 101 / 116 40% 2 07.04.2027 -
Tomás Abdelnur Santos Laguna Actif 89 / 100 40% 1 07.04.2027 -
Dani Ángel Sampdoria Actif 98 / 87 40% 3 02.04.2027 -
Tiago Pucciarelli IF Elfsborg Actif 106 / 122 40% 1 25.03.2027 -
Michael Noumon Heart of Lions Actif 76 / 83 40% 1 25.03.2027 -
Xavier Biscayzacú Defensor Sporting Actif 123 / 128 40% 3 19.03.2027 -
Godbless Ayeke AS Bakaridjan Actif 83 / 72 40% 1 19.03.2027 -
Dilan Neves Benfica Actif 84 / 68 40% 1 17.03.2027 -
Assane Diao Como Actif 136 / 164 40% 1 06.03.2027 -
Cheveyo Tsawa Club Brugge Actif 115 / 145 40% 4 27.02.2027 -
James Dornelly Peterborough United Actif 109 / 108 40% 2 27.02.2027 -
Franco Pulicastro Fortaleza CEIF Actif 109 / 109 42% 1 / 1m 24.02.2027 -
Juan Felipe Hincapié Tigres Actif 92 / 97 42% 1 / 1m 24.02.2027 -
Lucas Agazzi Villarreal Actif 112 / 137 40% 2 23.02.2027 -
Miguel Figueiredo Benfica Actif 112 / 127 40% 1 23.02.2027 -
Matvey Kislyak CSKA Moscow Actif 125 / 126 40% 2 15.02.2027 -
Hirving Reyes Veracruz Actif 76 / 78 40% 1 15.02.2027 -
Alexandro Maidana Eibar Actif 114 / 109 40% 1 07.02.2027 -
Caleb Yirenkyi Coventry City Actif 128 / 126 40% 3 06.02.2027 -
Bongani Jali Free State Stars Actif 96 / 119 40% 1 06.02.2027 -
Pape Diong Westerlo Actif 121 / 137 40% 1 05.02.2027 -
Thijmen Blokzijl KV Kortrijk Actif 113 / 121 40% 1 04.02.2027 -
Kazunari Kita Real Sociedad Actif 91 / 93 40% 1 04.02.2027 -
José Pachuca Puebla Actif 100 / 115 40% 3 30.11.2026 Observer
Juan Fernándes Pinto Almagro Actif 99 / 116 40% 1 04.11.2026 -
Ignacio Ovando Rosario Central Actif 98 / 120 40% 1 04.11.2026 -
James Bacca La Equidad Actif 117 / 119 40% 1 03.11.2026 Plus d'infos
Morrison Agyemang Charlotte Football Club Actif 112 / 108 40% 1 22.10.2026 -
Alan Forneris Racing Club Actif 112 / 110 40% 1 17.10.2026 -
Camilo Martinez Cortulua Actif 128 / 131 42% 1 / 1m 30.09.2026 -
Agustín Medina Lanús Actif 106 / 121 40% 1 08.09.2026 -
Jorge Moreno Athletic Bilbao Actif 109 / 129 40% 1 07.09.2026 -
Bautista Maillier Colón Actif 85 / 103 40% 1 07.09.2026 -
Isaí Valladares Zamora Actif 103 / 92 40% 1 07.09.2026 -
Jáder Maza Actif 119 / 119 30% 1 / 1m 19.08.2026 -
Joel Contreras Union Magdalena Actif 117 / 117 42% 1 / 1m 12.08.2026 -
Tomás Salteño Rosario Central Actif 91 / 96 40% 1 05.08.2026 -
Ian Wisdom Sporting Cristal Actif 101 / 91 40% 1 03.08.2026 -
Peio Canales Athletic Bilbao Actif 117 / 125 40% 1 01.08.2026 -
Bautista Rámirez Vélez Actif 104 / 111 40% 1 01.08.2026 -